Terminal Aerodrome Forecast
Issued by NWS Cleveland, OH

Home | Current Version | Previous Version | Graphics & Text | Print | Product List | Glossary Off
Versions: 1 2 3 4 5 6 7 8 9 10 11 12 13 14 15 16 17 18 19 20 21 22 23

000
FTUS41 KCLE 220530
TAFCLE
TAF
KCLE 220530Z 2206/2312 15003KT P6SM FEW080 BKN120
     FM221000 17005KT P6SM VCTS SCT060CB BKN120
     FM221200 18004KT 6SM -SHRA BR BKN040
      TEMPO 2212/2215 5SM -TSRA BKN035CB
     FM221500 20007KT 5SM -SHRA BR VCTS OVC035CB
     FM221800 22007KT P6SM SCT035 BKN050
     FM222100 29011KT P6SM BKN040=

USA.gov is the U.S. government's official web portal to all federal, state and local government web resources and services.